sensor_id;sensor_type;location;lat;lon;timestamp;pressure;altitude;pressure_sealevel;temperature;humidity
60355;BME280;46198;51.464;-0.066;2023-11-21T00:00:33;101308.53;;;10.66;100.00
60355;BME280;46198;51.464;-0.066;2023-11-21T00:03:01;101311.69;;;10.70;100.00
60355;BME280;46198;51.464;-0.066;2023-11-21T00:05:31;101310.81;;;10.69;100.00
60355;BME280;46198;51.464;-0.066;2023-11-21T00:07:59;101318.97;;;10.69;100.00
60355;BME280;46198;51.464;-0.066;2023-11-21T00:10:27;101318.56;;;10.65;100.00
60355;BME280;46198;51.464;-0.066;2023-11-21T00:12:57;101315.22;;;10.70;100.00
60355;BME280;46198;51.464;-0.066;2023-11-21T00:15:25;101318.56;;;10.65;100.00
60355;BME280;46198;51.464;-0.066;2023-11-21T00:17:53;101316.47;;;10.68;100.00
60355;BME280;46198;51.464;-0.066;2023-11-21T00:20:22;101311.88;;;10.68;100.00
60355;BME280;46198;51.464;-0.066;2023-11-21T00:22:50;101327.53;;;10.66;100.00
60355;BME280;46198;51.464;-0.066;2023-11-21T00:25:19;101326.09;;;10.70;100.00
60355;BME280;46198;51.464;-0.066;2023-11-21T00:27:47;101330.69;;;10.70;100.00
60355;BME280;46198;51.464;-0.066;2023-11-21T00:30:17;101330.69;;;10.70;100.00
60355;BME280;46198;51.464;-0.066;2023-11-21T00:32:46;101331.94;;;10.67;100.00
60355;BME280;46198;51.464;-0.066;2023-11-21T00:35:15;101346.34;;;10.68;100.00
60355;BME280;46198;51.464;-0.066;2023-11-21T00:37:43;101349.91;;;10.61;100.00
60355;BME280;46198;51.464;-0.066;2023-11-21T00:40:12;101349.47;;;10.64;100.00
60355;BME280;46198;51.464;-0.066;2023-11-21T00:42:42;101355.75;;;10.65;100.00
60355;BME280;46198;51.464;-0.066;2023-11-21T00:45:10;101357.22;;;10.68;100.00
60355;BME280;46198;51.464;-0.066;2023-11-21T00:47:40;101362.00;;;10.65;100.00
60355;BME280;46198;51.464;-0.066;2023-11-21T00:50:09;101368.91;;;10.68;100.00
60355;BME280;46198;51.464;-0.066;2023-11-21T00:52:38;101367.44;;;10.65;100.00
60355;BME280;46198;51.464;-0.066;2023-11-21T00:55:06;101372.44;;;10.69;100.00
60355;BME280;46198;51.464;-0.066;2023-11-21T00:57:35;101365.13;;;10.69;100.00
60355;BME280;46198;51.464;-0.066;2023-11-21T01:00:05;101373.72;;;10.73;100.00
60355;BME280;46198;51.464;-0.066;2023-11-21T01:02:37;101366.59;;;10.72;100.00
60355;BME280;46198;51.464;-0.066;2023-11-21T01:05:08;101375.16;;;10.69;100.00
60355;BME280;46198;51.464;-0.066;2023-11-21T01:07:37;101380.59;;;10.69;100.00
60355;BME280;46198;51.464;-0.066;2023-11-21T01:10:06;101378.09;;;10.67;100.00
60355;BME280;46198;51.464;-0.066;2023-11-21T01:12:35;101393.78;;;10.65;100.00
60355;BME280;46198;51.464;-0.066;2023-11-21T01:15:05;101396.69;;;10.63;100.00
60355;BME280;46198;51.464;-0.066;2023-11-21T01:17:35;101400.03;;;10.65;100.00
60355;BME280;46198;51.464;-0.066;2023-11-21T01:20:05;101399.63;;;10.62;100.00
60355;BME280;46198;51.464;-0.066;2023-11-21T01:22:42;101406.28;;;10.66;100.00
60355;BME280;46198;51.464;-0.066;2023-11-21T01:25:10;101402.31;;;10.69;100.00
60355;BME280;46198;51.464;-0.066;2023-11-21T01:27:42;101399.41;;;10.70;100.00
60355;BME280;46198;51.464;-0.066;2023-11-21T01:30:10;101397.53;;;10.64;100.00
60355;BME280;46198;51.464;-0.066;2023-11-21T01:32:39;101401.69;;;10.67;100.00
60355;BME280;46198;51.464;-0.066;2023-11-21T01:35:08;101409.66;;;10.68;100.00
60355;BME280;46198;51.464;-0.066;2023-11-21T01:37:38;101414.88;;;10.70;100.00
60355;BME280;46198;51.464;-0.066;2023-11-21T01:40:11;101416.53;;;10.71;100.00
60355;BME280;46198;51.464;-0.066;2023-11-21T01:42:41;101423.84;;;10.63;100.00
60355;BME280;46198;51.464;-0.066;2023-11-21T01:45:10;101425.53;;;10.64;100.00
60355;BME280;46198;51.464;-0.066;2023-11-21T01:47:40;101430.97;;;10.64;100.00
60355;BME280;46198;51.464;-0.066;2023-11-21T01:50:13;101444.53;;;10.64;100.00
60355;BME280;46198;51.464;-0.066;2023-11-21T01:52:44;101438.88;;;10.66;100.00
60355;BME280;46198;51.464;-0.066;2023-11-21T01:55:15;101442.66;;;10.65;100.00
60355;BME280;46198;51.464;-0.066;2023-11-21T01:57:54;101442.44;;;10.67;100.00
60355;BME280;46198;51.464;-0.066;2023-11-21T02:00:23;101446.84;;;10.68;100.00
60355;BME280;46198;51.464;-0.066;2023-11-21T02:02:53;101448.50;;;10.69;100.00
60355;BME280;46198;51.464;-0.066;2023-11-21T02:05:21;101447.03;;;10.66;100.00
60355;BME280;46198;51.464;-0.066;2023-11-21T02:07:50;101454.75;;;10.69;100.00
60355;BME280;46198;51.464;-0.066;2023-11-21T02:10:21;101459.38;;;10.69;100.00
60355;BME280;46198;51.464;-0.066;2023-11-21T02:12:51;101453.94;;;10.69;100.00
60355;BME280;46198;51.464;-0.066;2023-11-21T02:15:20;101466.06;;;10.73;100.00
60355;BME280;46198;51.464;-0.066;2023-11-21T02:17:50;101466.91;;;10.73;100.00
60355;BME280;46198;51.464;-0.066;2023-11-21T02:20:21;101470.03;;;10.77;100.00
60355;BME280;46198;51.464;-0.066;2023-11-21T02:22:53;101473.16;;;10.74;100.00
60355;BME280;46198;51.464;-0.066;2023-11-21T02:25:26;101472.94;;;10.69;100.00
60355;BME280;46198;51.464;-0.066;2023-11-21T02:27:56;101478.59;;;10.74;100.00
60355;BME280;46198;51.464;-0.066;2023-11-21T02:30:24;101477.34;;;10.70;100.00
60355;BME280;46198;51.464;-0.066;2023-11-21T02:32:55;101488.81;;;10.72;100.00
60355;BME280;46198;51.464;-0.066;2023-11-21T02:35:25;101482.78;;;10.70;100.00
60355;BME280;46198;51.464;-0.066;2023-11-21T02:37:55;101491.97;;;10.69;100.00
60355;BME280;46198;51.464;-0.066;2023-11-21T02:40:24;101481.72;;;10.71;100.00
60355;BME280;46198;51.464;-0.066;2023-11-21T02:42:54;101495.13;;;10.72;100.00
60355;BME280;46198;51.464;-0.066;2023-11-21T02:45:24;101498.22;;;10.69;100.00
60355;BME280;46198;51.464;-0.066;2023-11-21T02:47:53;101499.91;;;10.70;100.00
60355;BME280;46198;51.464;-0.066;2023-11-21T02:50:25;101505.75;;;10.67;100.00
60355;BME280;46198;51.464;-0.066;2023-11-21T02:52:55;101503.88;;;10.68;100.00
60355;BME280;46198;51.464;-0.066;2023-11-21T02:55:27;101499.47;;;10.67;100.00
60355;BME280;46198;51.464;-0.066;2023-11-21T02:57:55;101517.22;;;10.69;100.00
60355;BME280;46198;51.464;-0.066;2023-11-21T03:00:24;101503.22;;;10.59;100.00
60355;BME280;46198;51.464;-0.066;2023-11-21T03:02:54;101507.84;;;10.65;100.00
60355;BME280;46198;51.464;-0.066;2023-11-21T03:05:25;101513.69;;;10.62;100.00
60355;BME280;46198;51.464;-0.066;2023-11-21T03:07:55;101522.41;;;10.57;100.00
60355;BME280;46198;51.464;-0.066;2023-11-21T03:10:25;101521.19;;;10.60;100.00
60355;BME280;46198;51.464;-0.066;2023-11-21T03:12:55;101527.84;;;10.57;100.00
60355;BME280;46198;51.464;-0.066;2023-11-21T03:15:24;101527.44;;;10.60;100.00
60355;BME280;46198;51.464;-0.066;2023-11-21T03:17:52;101525.78;;;10.59;100.00
60355;BME280;46198;51.464;-0.066;2023-11-21T03:20:20;101535.34;;;10.55;100.00
60355;BME280;46198;51.464;-0.066;2023-11-21T03:22:49;101539.13;;;10.61;100.00
60355;BME280;46198;51.464;-0.066;2023-11-21T03:25:19;101542.06;;;10.59;100.00
60355;BME280;46198;51.464;-0.066;2023-11-21T03:27:51;101549.56;;;10.57;100.00
60355;BME280;46198;51.464;-0.066;2023-11-21T03:30:19;101549.38;;;10.59;100.00
60355;BME280;46198;51.464;-0.066;2023-11-21T03:32:48;101551.66;;;10.55;100.00
60355;BME280;46198;51.464;-0.066;2023-11-21T03:35:16;101552.94;;;10.59;100.00
60355;BME280;46198;51.464;-0.066;2023-11-21T03:37:48;101550.81;;;10.55;100.00
60355;BME280;46198;51.464;-0.066;2023-11-21T03:40:16;101557.91;;;10.49;100.00
60355;BME280;46198;51.464;-0.066;2023-11-21T03:42:46;101568.56;;;10.51;100.00
60355;BME280;46198;51.464;-0.066;2023-11-21T03:45:14;101571.06;;;10.52;100.00
60355;BME280;46198;51.464;-0.066;2023-11-21T03:47:42;101564.16;;;10.50;100.00
60355;BME280;46198;51.464;-0.066;2023-11-21T03:50:10;101569.09;;;10.39;100.00
60355;BME280;46198;51.464;-0.066;2023-11-21T03:52:39;101578.31;;;10.38;100.00
60355;BME280;46198;51.464;-0.066;2023-11-21T03:55:07;101579.13;;;10.32;100.00
60355;BME280;46198;51.464;-0.066;2023-11-21T03:57:39;101577.22;;;10.33;100.00
60355;BME280;46198;51.464;-0.066;2023-11-21T04:00:09;101587.94;;;10.41;100.00
60355;BME280;46198;51.464;-0.066;2023-11-21T04:02:38;101594.16;;;10.35;100.00
60355;BME280;46198;51.464;-0.066;2023-11-21T04:05:07;101609.66;;;10.41;100.00
60355;BME280;46198;51.464;-0.066;2023-11-21T04:07:36;101599.34;;;10.30;100.00
60355;BME280;46198;51.464;-0.066;2023-11-21T04:10:06;101605.81;;;10.29;100.00
60355;BME280;46198;51.464;-0.066;2023-11-21T04:12:35;101605.84;;;10.35;100.00
60355;BME280;46198;51.464;-0.066;2023-11-21T04:15:05;101599.13;;;10.31;100.00
60355;BME280;46198;51.464;-0.066;2023-11-21T04:17:37;101611.69;;;10.32;100.00
60355;BME280;46198;51.464;-0.066;2023-11-21T04:20:07;101610.84;;;10.32;100.00
60355;BME280;46198;51.464;-0.066;2023-11-21T04:22:38;101615.25;;;10.33;100.00
60355;BME280;46198;51.464;-0.066;2023-11-21T04:25:09;101617.94;;;10.33;100.00
60355;BME280;46198;51.464;-0.066;2023-11-21T04:27:38;101612.53;;;10.33;100.00
60355;BME280;46198;51.464;-0.066;2023-11-21T04:30:32;101620.41;;;10.28;100.00
60355;BME280;46198;51.464;-0.066;2023-11-21T04:33:02;101626.09;;;10.33;100.00
60355;BME280;46198;51.464;-0.066;2023-11-21T04:35:30;101634.63;;;10.30;100.00
60355;BME280;46198;51.464;-0.066;2023-11-21T04:37:58;101643.63;;;10.30;100.00
60355;BME280;46198;51.464;-0.066;2023-11-21T04:40:27;101641.94;;;10.29;100.00
60355;BME280;46198;51.464;-0.066;2023-11-21T04:42:55;101647.28;;;10.23;100.00
60355;BME280;46198;51.464;-0.066;2023-11-21T04:45:24;101659.63;;;10.25;100.00
60355;BME280;46198;51.464;-0.066;2023-11-21T04:47:52;101655.72;;;10.28;100.00
60355;BME280;46198;51.464;-0.066;2023-11-21T04:50:22;101662.56;;;10.24;100.00
60355;BME280;46198;51.464;-0.066;2023-11-21T04:52:50;101670.44;;;10.18;100.00
60355;BME280;46198;51.464;-0.066;2023-11-21T04:55:18;101665.59;;;10.14;100.00
60355;BME280;46198;51.464;-0.066;2023-11-21T04:57:46;101674.97;;;10.11;100.00
60355;BME280;46198;51.464;-0.066;2023-11-21T05:00:15;101681.88;;;10.14;100.00
60355;BME280;46198;51.464;-0.066;2023-11-21T05:02:43;101686.41;;;10.07;100.00
60355;BME280;46198;51.464;-0.066;2023-11-21T05:05:12;101690.59;;;10.09;100.00
60355;BME280;46198;51.464;-0.066;2023-11-21T05:07:43;101691.69;;;10.15;100.00
60355;BME280;46198;51.464;-0.066;2023-11-21T05:10:11;101687.25;;;10.07;100.00
60355;BME280;46198;51.464;-0.066;2023-11-21T05:12:42;101693.69;;;10.06;100.00
60355;BME280;46198;51.464;-0.066;2023-11-21T05:15:14;101698.47;;;10.04;100.00
60355;BME280;46198;51.464;-0.066;2023-11-21T05:17:42;101698.63;;;9.96;100.00
60355;BME280;46198;51.464;-0.066;2023-11-21T05:20:12;101703.22;;;9.95;100.00
60355;BME280;46198;51.464;-0.066;2023-11-21T05:22:42;101699.41;;;9.90;100.00
60355;BME280;46198;51.464;-0.066;2023-11-21T05:25:11;101700.31;;;9.97;100.00
60355;BME280;46198;51.464;-0.066;2023-11-21T05:27:40;101703.84;;;9.97;100.00
60355;BME280;46198;51.464;-0.066;2023-11-21T05:30:09;101697.78;;;9.95;100.00
60355;BME280;46198;51.464;-0.066;2023-11-21T05:32:39;101704.00;;;9.89;100.00
60355;BME280;46198;51.464;-0.066;2023-11-21T05:35:09;101710.06;;;9.91;100.00
60355;BME280;46198;51.464;-0.066;2023-11-21T05:37:43;101711.47;;;9.87;100.00
60355;BME280;46198;51.464;-0.066;2023-11-21T05:40:13;101717.72;;;9.88;100.00
60355;BME280;46198;51.464;-0.066;2023-11-21T05:42:41;101724.03;;;9.88;100.00
60355;BME280;46198;51.464;-0.066;2023-11-21T05:45:35;101729.38;;;9.82;100.00
60355;BME280;46198;51.464;-0.066;2023-11-21T05:48:04;101729.94;;;9.77;100.00
60355;BME280;46198;51.464;-0.066;2023-11-21T05:50:35;101728.00;;;9.71;100.00
60355;BME280;46198;51.464;-0.066;2023-11-21T05:53:06;101744.94;;;9.73;100.00
60355;BME280;46198;51.464;-0.066;2023-11-21T05:55:37;101746.53;;;9.67;100.00
60355;BME280;46198;51.464;-0.066;2023-11-21T05:58:06;101748.88;;;9.70;100.00
60355;BME280;46198;51.464;-0.066;2023-11-21T06:00:35;101741.38;;;9.72;100.00
60355;BME280;46198;51.464;-0.066;2023-11-21T06:03:04;101752.63;;;9.69;100.00
60355;BME280;46198;51.464;-0.066;2023-11-21T06:05:33;101756.81;;;9.72;100.00
60355;BME280;46198;51.464;-0.066;2023-11-21T06:08:02;101765.69;;;9.66;100.00
60355;BME280;46198;51.464;-0.066;2023-11-21T06:10:32;101773.00;;;9.65;100.00
60355;BME280;46198;51.464;-0.066;2023-11-21T06:13:01;101774.69;;;9.66;100.00
60355;BME280;46198;51.464;-0.066;2023-11-21T06:15:30;101773.66;;;9.67;100.00
60355;BME280;46198;51.464;-0.066;2023-11-21T06:17:58;101788.81;;;9.62;100.00
60355;BME280;46198;51.464;-0.066;2023-11-21T06:20:27;101801.44;;;9.69;100.00
60355;BME280;46198;51.464;-0.066;2023-11-21T06:22:55;101806.19;;;9.67;100.00
60355;BME280;46198;51.464;-0.066;2023-11-21T06:25:24;101809.34;;;9.71;100.00
60355;BME280;46198;51.464;-0.066;2023-11-21T06:27:53;101797.03;;;9.68;100.00
60355;BME280;46198;51.464;-0.066;2023-11-21T06:30:21;101804.78;;;9.71;100.00
60355;BME280;46198;51.464;-0.066;2023-11-21T06:32:50;101806.00;;;9.69;100.00
60355;BME280;46198;51.464;-0.066;2023-11-21T06:35:20;101813.13;;;9.70;100.00
60355;BME280;46198;51.464;-0.066;2023-11-21T06:37:49;101812.00;;;9.64;100.00
60355;BME280;46198;51.464;-0.066;2023-11-21T06:40:19;101813.41;;;9.60;100.00
60355;BME280;46198;51.464;-0.066;2023-11-21T06:42:48;101812.84;;;9.65;100.00
60355;BME280;46198;51.464;-0.066;2023-11-21T06:45:18;101828.00;;;9.59;100.00
60355;BME280;46198;51.464;-0.066;2023-11-21T06:47:47;101835.75;;;9.62;100.00
60355;BME280;46198;51.464;-0.066;2023-11-21T06:50:17;101840.91;;;9.57;100.00
60355;BME280;46198;51.464;-0.066;2023-11-21T06:52:45;101837.72;;;9.53;100.00
60355;BME280;46198;51.464;-0.066;2023-11-21T06:55:13;101844.81;;;9.54;100.00
60355;BME280;46198;51.464;-0.066;2023-11-21T06:57:43;101845.66;;;9.55;100.00
60355;BME280;46198;51.464;-0.066;2023-11-21T07:00:13;101854.66;;;9.56;100.00
60355;BME280;46198;51.464;-0.066;2023-11-21T07:02:46;101855.66;;;9.54;100.00
60355;BME280;46198;51.464;-0.066;2023-11-21T07:05:14;101862.50;;;9.50;100.00
60355;BME280;46198;51.464;-0.066;2023-11-21T07:07:48;101861.09;;;9.40;100.00
60355;BME280;46198;51.464;-0.066;2023-11-21T07:10:16;101871.38;;;9.29;100.00
60355;BME280;46198;51.464;-0.066;2023-11-21T07:12:45;101869.88;;;9.42;100.00
60355;BME280;46198;51.464;-0.066;2023-11-21T07:15:13;101880.16;;;9.31;100.00
60355;BME280;46198;51.464;-0.066;2023-11-21T07:17:41;101882.22;;;9.29;100.00
60355;BME280;46198;51.464;-0.066;2023-11-21T07:20:12;101888.09;;;9.33;100.00
60355;BME280;46198;51.464;-0.066;2023-11-21T07:22:41;101892.69;;;9.32;100.00
60355;BME280;46198;51.464;-0.066;2023-11-21T07:25:09;101893.72;;;9.31;100.00
60355;BME280;46198;51.464;-0.066;2023-11-21T07:27:39;101901.94;;;9.38;100.00
60355;BME280;46198;51.464;-0.066;2023-11-21T07:30:08;101909.59;;;9.35;100.00
60355;BME280;46198;51.464;-0.066;2023-11-21T07:32:37;101915.03;;;9.35;100.00
60355;BME280;46198;51.464;-0.066;2023-11-21T07:35:08;101918.75;;;9.19;100.00
60355;BME280;46198;51.464;-0.066;2023-11-21T07:37:38;101916.50;;;9.22;100.00
60355;BME280;46198;51.464;-0.066;2023-11-21T07:40:08;101928.00;;;9.24;100.00
60355;BME280;46198;51.464;-0.066;2023-11-21T07:42:36;101932.47;;;9.17;100.00
60355;BME280;46198;51.464;-0.066;2023-11-21T07:45:06;101934.63;;;9.22;100.00
60355;BME280;46198;51.464;-0.066;2023-11-21T07:47:35;101936.22;;;9.16;100.00
60355;BME280;46198;51.464;-0.066;2023-11-21T07:50:04;101946.00;;;9.17;100.00
60355;BME280;46198;51.464;-0.066;2023-11-21T07:52:34;101950.06;;;9.21;100.00
60355;BME280;46198;51.464;-0.066;2023-11-21T07:55:06;101953.81;;;9.20;100.00
60355;BME280;46198;51.464;-0.066;2023-11-21T07:57:35;101958.72;;;9.17;100.00
60355;BME280;46198;51.464;-0.066;2023-11-21T08:00:04;101953.81;;;9.20;100.00
60355;BME280;46198;51.464;-0.066;2023-11-21T08:02:39;101964.63;;;9.20;100.00
60355;BME280;46198;51.464;-0.066;2023-11-21T08:05:10;101969.75;;;9.15;100.00
60355;BME280;46198;51.464;-0.066;2023-11-21T08:07:51;101973.78;;;9.19;100.00
60355;BME280;46198;51.464;-0.066;2023-11-21T08:10:20;101967.97;;;9.22;100.00
60355;BME280;46198;51.464;-0.066;2023-11-21T08:12:49;101983.25;;;9.23;100.00
60355;BME280;46198;51.464;-0.066;2023-11-21T08:15:18;101983.59;;;9.20;100.00
60355;BME280;46198;51.464;-0.066;2023-11-21T08:17:47;101989.19;;;9.19;100.00
60355;BME280;46198;51.464;-0.066;2023-11-21T08:20:15;101991.84;;;9.27;100.00
60355;BME280;46198;51.464;-0.066;2023-11-21T08:22:45;101985.94;;;9.23;100.00
60355;BME280;46198;51.464;-0.066;2023-11-21T08:25:15;101997.63;;;9.24;100.00
60355;BME280;46198;51.464;-0.066;2023-11-21T08:27:46;102008.16;;;9.19;100.00
60355;BME280;46198;51.464;-0.066;2023-11-21T08:30:14;102010.81;;;9.27;100.00
60355;BME280;46198;51.464;-0.066;2023-11-21T08:32:43;102000.13;;;9.25;100.00
60355;BME280;46198;51.464;-0.066;2023-11-21T08:35:12;102009.59;;;9.29;100.00
60355;BME280;46198;51.464;-0.066;2023-11-21T08:37:40;102007.19;;;9.35;100.00
60355;BME280;46198;51.464;-0.066;2023-11-21T08:40:10;102008.41;;;9.32;100.00
60355;BME280;46198;51.464;-0.066;2023-11-21T08:42:45;102030.63;;;9.27;100.00
60355;BME280;46198;51.464;-0.066;2023-11-21T08:45:15;102021.81;;;9.25;100.00
60355;BME280;46198;51.464;-0.066;2023-11-21T08:47:44;102021.81;;;9.25;100.00
60355;BME280;46198;51.464;-0.066;2023-11-21T08:50:13;102033.41;;;9.19;100.00
60355;BME280;46198;51.464;-0.066;2023-11-21T08:52:43;102031.34;;;9.21;100.00
60355;BME280;46198;51.464;-0.066;2023-11-21T08:55:13;102036.41;;;9.24;100.00
60355;BME280;46198;51.464;-0.066;2023-11-21T08:57:45;102035.38;;;9.25;100.00
60355;BME280;46198;51.464;-0.066;2023-11-21T09:00:15;102035.56;;;9.24;100.00
60355;BME280;46198;51.464;-0.066;2023-11-21T09:02:44;102033.03;;;9.22;100.00
60355;BME280;46198;51.464;-0.066;2023-11-21T09:05:14;102041.09;;;9.30;100.00
60355;BME280;46198;51.464;-0.066;2023-11-21T09:07:43;102044.47;;;9.32;100.00
60355;BME280;46198;51.464;-0.066;2023-11-21T09:10:13;102053.63;;;9.31;100.00
60355;BME280;46198;51.464;-0.066;2023-11-21T09:12:41;102052.97;;;9.29;100.00
60355;BME280;46198;51.464;-0.066;2023-11-21T09:15:12;102063.75;;;9.38;100.00
60355;BME280;46198;51.464;-0.066;2023-11-21T09:17:41;102061.34;;;9.43;100.00
60355;BME280;46198;51.464;-0.066;2023-11-21T09:20:12;102059.53;;;9.35;100.00
60355;BME280;46198;51.464;-0.066;2023-11-21T09:22:42;102062.91;;;9.37;100.00
60355;BME280;46198;51.464;-0.066;2023-11-21T09:25:12;102075.56;;;9.45;100.00
60355;BME280;46198;51.464;-0.066;2023-11-21T09:27:40;102073.78;;;9.52;100.00
60355;BME280;46198;51.464;-0.066;2023-11-21T09:30:08;102078.91;;;9.47;100.00
60355;BME280;46198;51.464;-0.066;2023-11-21T09:32:40;102072.13;;;9.51;100.00
60355;BME280;46198;51.464;-0.066;2023-11-21T09:35:12;102078.00;;;9.54;100.00
60355;BME280;46198;51.464;-0.066;2023-11-21T09:37:43;102084.84;;;9.50;100.00
60355;BME280;46198;51.464;-0.066;2023-11-21T09:40:12;102094.84;;;9.50;100.00
60355;BME280;46198;51.464;-0.066;2023-11-21T09:42:49;102084.94;;;9.57;100.00
60355;BME280;46198;51.464;-0.066;2023-11-21T09:45:21;102100.00;;;9.60;100.00
60355;BME280;46198;51.464;-0.066;2023-11-21T09:47:54;102095.53;;;9.67;100.00
60355;BME280;46198;51.464;-0.066;2023-11-21T09:50:24;102100.75;;;9.68;100.00
60355;BME280;46198;51.464;-0.066;2023-11-21T09:52:57;102111.25;;;9.71;100.00
60355;BME280;46198;51.464;-0.066;2023-11-21T09:55:28;102107.69;;;9.71;100.00
60355;BME280;46198;51.464;-0.066;2023-11-21T09:57:57;102102.09;;;9.72;100.00
60355;BME280;46198;51.464;-0.066;2023-11-21T10:00:26;102106.47;;;9.73;100.00
60355;BME280;46198;51.464;-0.066;2023-11-21T10:03:21;102103.78;;;9.73;100.00
60355;BME280;46198;51.464;-0.066;2023-11-21T10:05:50;102109.66;;;9.77;100.00
60355;BME280;46198;51.464;-0.066;2023-11-21T10:08:22;102115.28;;;9.75;100.00
60355;BME280;46198;51.464;-0.066;2023-11-21T10:10:53;102113.25;;;9.77;100.00
60355;BME280;46198;51.464;-0.066;2023-11-21T10:13:21;102118.28;;;9.81;100.00
60355;BME280;46198;51.464;-0.066;2023-11-21T10:15:51;102130.09;;;9.88;100.00
60355;BME280;46198;51.464;-0.066;2023-11-21T10:18:23;102132.78;;;9.88;100.00
60355;BME280;46198;51.464;-0.066;2023-11-21T10:20:54;102126.28;;;9.97;100.00
60355;BME280;46198;51.464;-0.066;2023-11-21T10:23:24;102124.78;;;9.94;100.00
60355;BME280;46198;51.464;-0.066;2023-11-21T10:25:52;102131.16;;;10.02;100.00
60355;BME280;46198;51.464;-0.066;2023-11-21T10:28:24;102131.25;;;10.08;100.00
60355;BME280;46198;51.464;-0.066;2023-11-21T10:30:52;102136.84;;;10.07;100.00
60355;BME280;46198;51.464;-0.066;2023-11-21T10:33:28;102134.53;;;10.04;100.00
60355;BME280;46198;51.464;-0.066;2023-11-21T10:35:57;102136.69;;;10.08;100.00
60355;BME280;46198;51.464;-0.066;2023-11-21T10:38:26;102132.94;;;10.09;100.00
60355;BME280;46198;51.464;-0.066;2023-11-21T10:40:55;102132.94;;;10.09;100.00
60355;BME280;46198;51.464;-0.066;2023-11-21T10:43:25;102132.56;;;10.12;100.00
60355;BME280;46198;51.464;-0.066;2023-11-21T10:45:57;102131.25;;;10.08;100.00
60355;BME280;46198;51.464;-0.066;2023-11-21T10:48:27;102132.56;;;10.12;100.00
60355;BME280;46198;51.464;-0.066;2023-11-21T10:50:55;102133.22;;;10.14;100.00
60355;BME280;46198;51.464;-0.066;2023-11-21T10:53:28;102142.63;;;10.27;100.00
60355;BME280;46198;51.464;-0.066;2023-11-21T10:56:02;102144.16;;;10.29;100.00
60355;BME280;46198;51.464;-0.066;2023-11-21T10:58:33;102142.19;;;10.38;100.00
60355;BME280;46198;51.464;-0.066;2023-11-21T11:01:06;102143.47;;;10.42;100.00
60355;BME280;46198;51.464;-0.066;2023-11-21T11:03:36;102144.97;;;10.45;100.00
60355;BME280;46198;51.464;-0.066;2023-11-21T11:06:05;102145.66;;;10.47;100.00
60355;BME280;46198;51.464;-0.066;2023-11-21T11:08:39;102137.78;;;10.37;100.00
60355;BME280;46198;51.464;-0.066;2023-11-21T11:11:10;102148.19;;;10.48;100.00
60355;BME280;46198;51.464;-0.066;2023-11-21T11:13:43;102141.72;;;10.49;100.00
60355;BME280;46198;51.464;-0.066;2023-11-21T11:16:12;102144.16;;;10.44;100.00
60355;BME280;46198;51.464;-0.066;2023-11-21T11:18:45;102139.75;;;10.43;100.00
60355;BME280;46198;51.464;-0.066;2023-11-21T11:21:25;102139.19;;;10.48;100.00
60355;BME280;46198;51.464;-0.066;2023-11-21T11:24:09;102135.91;;;10.37;100.00
60355;BME280;46198;51.464;-0.066;2023-11-21T11:26:46;102150.63;;;10.43;100.00
60355;BME280;46198;51.464;-0.066;2023-11-21T11:29:28;102149.78;;;10.42;100.00
60355;BME280;46198;51.464;-0.066;2023-11-21T11:32:09;102155.56;;;10.54;100.00
60355;BME280;46198;51.464;-0.066;2023-11-21T11:34:47;102147.88;;;10.58;100.00
60355;BME280;46198;51.464;-0.066;2023-11-21T11:37:19;102163.34;;;10.57;100.00
60355;BME280;46198;51.464;-0.066;2023-11-21T11:39:49;102152.09;;;10.60;100.00
60355;BME280;46198;51.464;-0.066;2023-11-21T11:42:17;102160.91;;;10.62;100.00
60355;BME280;46198;51.464;-0.066;2023-11-21T11:44:51;102166.72;;;10.59;100.00
60355;BME280;46198;51.464;-0.066;2023-11-21T11:47:23;102164.47;;;10.48;100.00
60355;BME280;46198;51.464;-0.066;2023-11-21T11:50:00;102159.41;;;10.60;100.00
60355;BME280;46198;51.464;-0.066;2023-11-21T11:52:38;102162.31;;;10.58;100.00
60355;BME280;46198;51.464;-0.066;2023-11-21T11:55:10;102170.63;;;10.72;100.00
60355;BME280;46198;51.464;-0.066;2023-11-21T11:57:40;102170.63;;;10.72;100.00
60355;BME280;46198;51.464;-0.066;2023-11-21T12:00:13;102174.50;;;10.62;100.00
60355;BME280;46198;51.464;-0.066;2023-11-21T12:02:47;102170.84;;;10.55;100.00
60355;BME280;46198;51.464;-0.066;2023-11-21T12:05:18;102175.25;;;10.56;100.00
60355;BME280;46198;51.464;-0.066;2023-11-21T12:07:47;102176.84;;;10.65;100.00
60355;BME280;46198;51.464;-0.066;2023-11-21T12:10:17;102181.88;;;10.69;100.00
60355;BME280;46198;51.464;-0.066;2023-11-21T12:12:47;102173.06;;;10.67;100.00
60355;BME280;46198;51.464;-0.066;2023-11-21T12:15:16;102177.66;;;10.66;100.00
60355;BME280;46198;51.464;-0.066;2023-11-21T12:17:46;102180.47;;;10.58;100.00
60355;BME280;46198;51.464;-0.066;2023-11-21T12:20:20;102188.75;;;10.64;100.00
60355;BME280;46198;51.464;-0.066;2023-11-21T12:22:50;102196.50;;;10.68;100.00
60355;BME280;46198;51.464;-0.066;2023-11-21T12:25:20;102195.38;;;10.77;100.00
60355;BME280;46198;51.464;-0.066;2023-11-21T12:27:50;102203.03;;;10.88;100.00
60355;BME280;46198;51.464;-0.066;2023-11-21T12:30:20;102204.09;;;10.87;100.00
60355;BME280;46198;51.464;-0.066;2023-11-21T12:32:50;102203.03;;;10.88;100.00
60355;BME280;46198;51.464;-0.066;2023-11-21T12:35:22;102211.88;;;10.90;100.00
60355;BME280;46198;51.464;-0.066;2023-11-21T12:37:51;102223.69;;;10.97;100.00
60355;BME280;46198;51.464;-0.066;2023-11-21T12:40:21;102220.28;;;10.95;100.00
60355;BME280;46198;51.464;-0.066;2023-11-21T12:42:51;102229.56;;;11.01;100.00
60355;BME280;46198;51.464;-0.066;2023-11-21T12:45:21;102232.00;;;10.96;100.00
60355;BME280;46198;51.464;-0.066;2023-11-21T12:47:55;102241.09;;;11.03;100.00